Tiempo atmosférico en la estación meteorológica de Marbella, Puerto, Málaga (6 m.)



Fecha
DESCASC
Temp. máxima en grados centígrados (hora)
DESCASC
Temp. mínima en grados centígrados (hora)
DESCASC
Temp. media en grados centígrados
DESCASC
Racha de viento máxima en m/sg (hora)
DESCASC
Velocidad máxima media en intervalos de 10 minutos(hora)
DESCASC
Precipitaciones diarias en mm
DESCASC
Precipitaciones de 00:00 a 06:00 en mm
DESCASC
Precipitaciones de 06:00 a 12:00 en mm
DESCASC
Precipitaciones de 12:00 a 18:00 en mm
DESCASC
Precipitaciones de 18:00 a 24:00 en mm
DESCASC
11-08-2020 28.5 (10:00) 25.1 (23:59) 26.8 7.78 (13:40) 5.83 (13:40) 1.2 0 1.2 0 0
10-08-2020 29 (15:30) 23.2 (03:10) 26.1 8.61 (21:10) 6.39 (21:10) 0.6 0 0 0.6 0
09-08-2020 28.2 (16:50) 22.6 (07:10) 25.4 4.72 (01:00) 3.33 (01:00) 0 0 0 0 0
08-08-2020 28.4 (17:10) 22.9 (06:30) 25.6 5.28 (05:20) 3.61 (05:10) 0 0 0 0 0
07-08-2020 27.8 (19:50) 23.4 (00:00) 25.6 10 (12:40) 7.22 (15:00) 0 0 0 0 0
06-08-2020 27.5 (09:50) 24.6 (00:00) 26.1 9.72 (22:30) 7.78 (18:40) 0 0 0 0 0
05-08-2020 28.6 (18:30) 23.5 (00:00) 26.1 7.5 (15:30) 5.83 (15:20) 0 0 0 0 0
04-08-2020 26.4 (09:40) 22.7 (05:00) 24.6 10.56 (14:10) 8.33 (12:50) 0 0 0 0 0
03-08-2020 28.8 (13:00) 21.7 (08:20) 25.3 12.5 (16:50) 10.56 (16:50) 0 0 0 0 0
02-08-2020 33.8 (18:50) 24.5 (00:00) 29.1 12.22 (21:40) 9.72 (21:40) 0 0 0 0 0
01-08-2020 29 (17:00) 24.4 (00:00) 26.7 7.5 (02:30) 4.44 (02:30) 0 0 0 0 0
31-07-2020 28.2 (17:40) 23.5 (06:40) 25.9 4.17 (23:59) 3.06 (23:59) 0 0 0 0 0
30-07-2020 28.4 (18:20) 24.8 (00:00) 26.6 8.06 (14:20) 6.11 (13:00) 0 0 0 0 0
29-07-2020 28.4 (17:40) 22.7 (00:00) 25.6 6.39 (23:10) 5 (23:10) 0 0 0 0 0
28-07-2020 26.9 (16:30) 22.2 (00:00) 24.6 4.44 (02:10) 3.06 (02:10) 0 0 0 0 0
27-07-2020 28.6 (10:50) 23.7 (00:00) 26.2 5.83 (00:40) 4.17 (13:40) 0 0 0 0 0
26-07-2020 27.2 (19:50) 22.9 (00:00) 25.1 6.11 (07:20) 4.17 (07:20) 0 0 0 0 0
25-07-2020 27.6 (14:10) 22.9 (00:00) 25.3 5.83 (15:10) 2.78 (15:30) 0 0 0 0 0
24-07-2020 26.4 (18:40) 23.7 (00:00) 25.1 4.72 (20:50) 3.89 (20:50) 0 0 0 0 0
23-07-2020 26.3 (18:40) 22.8 (00:00) 24.5 5.83 (03:00) 4.72 (03:10) 0 0 0 0 0
22-07-2020 26.6 (10:10) 22.7 (00:00) 24.7 7.22 (00:20) 5.83 (00:20) 0 0 0 0 0
21-07-2020 28.7 (02:10) 23.7 (00:00) 26.2 14.72 (01:40) 11.67 (01:30) 1.6 0 1.6 0 0
20-07-2020 28 (11:10) 22.8 (00:00) 25.4 10.83 (15:10) 8.33 (14:50) 0 0 0 0 0
19-07-2020 26.1 (09:10) 21.9 (00:00) 24 3.89 (06:50) 2.5 (19:50) 0 0 0 0 0
18-07-2020 26.8 (09:30) 21.9 (00:00) 24.3 6.11 (11:50) 4.72 (10:20) 0 0 0 0 0
17-07-2020 27.4 (15:20) 22.3 (00:00) 24.8 7.22 (00:50) 5.83 (10:30) 0 0 0 0 0
16-07-2020 26.9 (20:00) 24.1 (00:00) 25.5 10.28 (15:50) 8.33 (16:00) 0 0 0 0 0
15-07-2020 25.8 (09:40) 23.2 (00:00) 24.5 11.11 (02:50) 8.33 (02:50) 0 0 0 0 0

Gráficas

Temp. máximas Temp. mínimas Temp. medias Precipitaciones Rachas de viento máximas Velocidades máximas media en intervalos de 10 minutos

Datos horarios

Fecha y hora oficial Temperatura (ºC) Velocidad del viento (km/h) Dirección del viento Racha (km/h) Dirección de racha Precipitación (mm) Presión (hPa) Tendencia (hPa) Humedad (%)
2020-08-13 23:00:00 24.7 4 Nordeste 9 Nordeste 0 -- -- 85
2020-08-13 22:00:00 25.2 5 Este 9 Nordeste 0 -- -- 82
2020-08-13 21:00:00 25.4 2 Sudeste 5 Sudeste 0 -- -- 74
2020-08-13 20:00:00 26.6 0 Calma 10 Sudeste 0 -- -- 71
2020-08-13 19:00:00 26.1 8 Sudeste 13 Sudeste 0 -- -- 74
2020-08-13 18:00:00 26.5 5 Sudeste 8 Este 0 -- -- 70
2020-08-13 17:00:00 26 4 Sudeste 9 Sudeste 0 -- -- 71
2020-08-13 16:00:00 25.5 5 Sudeste 9 Sur 0 -- -- 73
2020-08-13 15:00:00 25.7 5 Este 9 Este 0 -- -- 74
2020-08-13 14:00:00 25.2 4 Este 9 Sudeste 0 -- -- 69
2020-08-13 13:00:00 25.8 0 Calma 9 Sudoeste 0 -- -- 57
2020-08-13 12:00:00 23.9 8 Sudoeste 10 Sudoeste 0 -- -- 75
2020-08-13 11:00:00 23.8 5 Sur 11 Este 0 -- -- 73
2020-08-13 10:00:00 25 4 Este 9 Nordeste 0 -- -- 69
2020-08-13 09:00:00 23.3 6 Nordeste 12 Norte 0 -- -- 73
2020-08-13 08:00:00 21.4 10 Nordeste 14 Nordeste 0 -- -- 81
2020-08-13 07:00:00 21.2 8 Nordeste 10 Nordeste 0 -- -- 80
2020-08-13 06:00:00 21.5 5 Oeste 9 Oeste 0 -- -- 74
2020-08-13 05:00:00 22.1 3 Oeste 11 Norte 0 -- -- 77
2020-08-13 04:00:00 21.7 5 Norte 9 Nordeste 0 -- -- 82
2020-08-13 03:00:00 22.4 5 Nordeste 10 Nordeste 0 -- -- 84
2020-08-13 02:00:00 23.1 9 Nordeste 11 Nordeste 0 -- -- 82
2020-08-13 01:00:00 23.3 4 Nordeste 16 Sudoeste 0 -- -- 78
2020-08-13 00:00:00 24.1 4 Sur 9 Nordeste 0 -- -- 76
2020-08-12 23:00:00 24.5 6 Sudoeste 35 Sudoeste 0 -- -- 76
2020-08-12 22:00:00 25.1 16 Sudoeste 28 Sudoeste 0 -- -- 72
2020-08-12 21:00:00 25.7 15 Oeste 31 Sudoeste 0 -- -- 68
2020-08-12 20:00:00 26.6 14 Sudoeste 31 Sur 0 -- -- 66
2020-08-12 19:00:00 25.3 25 Sur 36 Sudoeste 0 -- -- 76
2020-08-12 18:00:00 25.9 27 Sur 41 Sudoeste 0 -- -- 72
2020-08-12 17:00:00 25.8 26 Sudoeste 35 Sudoeste 0 -- -- 71
2020-08-12 16:00:00 25.6 27 Sudoeste 35 Sudoeste 0 -- -- 74
2020-08-12 15:00:00 26 29 Sudoeste 36 Sudoeste 0 -- -- 68
2020-08-12 14:00:00 25.5 30 Sudoeste 39 Sudoeste 0 -- -- 70
2020-08-12 13:00:00 25.1 34 Sudoeste 43 Sudoeste 0 -- -- 68
2020-08-12 12:00:00 25 31 Sudoeste 39 Sudoeste 0 -- -- 70
2020-08-12 11:00:00 24.5 33 Sudoeste 39 Sudoeste 0 -- -- 70
2020-08-12 10:00:00 25.1 9 Oeste 15 Oeste 0 -- -- 70
2020-08-12 09:00:00 23.8 7 Sudoeste 12 Oeste 0 -- -- 74
2020-08-12 08:00:00 22.3 11 Oeste 16 Sudoeste 0 -- -- 76
2020-08-12 07:00:00 22.6 10 Sudoeste 30 Sudoeste 0 -- -- 78
2020-08-12 06:00:00 23.2 22 Sudoeste 33 Sudoeste 0 -- -- 79
2020-08-12 05:00:00 23.7 4 Nordeste 13 Oeste 0 -- -- 79
2020-08-12 04:00:00 24.1 15 Sudoeste 22 Sudoeste 0 -- -- 79
2020-08-12 03:00:00 23.8 7 Nordeste 10 Nordeste 0 -- -- 81
2020-08-12 02:00:00 24.2 7 Oeste 13 Sudoeste 0 -- -- 79
2020-08-12 01:00:00 24.3 5 Oeste 23 Oeste 0 -- -- 79
2020-08-12 00:00:00 25.1 18 Oeste 28 Oeste 0 -- -- 79
2020-08-11 23:00:00 25.6 6 Sudoeste 10 Sudoeste 0 -- -- 87
2020-08-11 22:00:00 25.9 6 Sur 8 Sur 0 -- -- 86
2020-08-11 21:00:00 26.4 5 Sudoeste 6 Oeste 0 -- -- 84
2020-08-11 20:00:00 26.6 4 Sur 13 Sudoeste 0 -- -- 83
2020-08-11 19:00:00 26.4 12 Sur 15 Sur 0 -- -- 84
2020-08-11 18:00:00 27.4 7 Sudeste 17 Este 0 -- -- 82
2020-08-11 17:00:00 27.2 13 Sudeste 24 Este 0 -- -- 82
2020-08-11 16:00:00 27.2 18 Este 24 Este 0 -- -- 80
2020-08-11 15:00:00 27.5 16 Este 22 Este 0 -- -- 77
2020-08-11 14:00:00 27.3 18 Sudeste 28 Este 0 -- -- 76
2020-08-11 13:00:00 28.1 14 Este 24 Este 0 -- -- 70
2020-08-11 12:00:00 27.4 15 Este 20 Este 0 -- -- 75
2020-08-11 11:00:00 28 12 Este 21 Este 0.2 -- -- 76
2020-08-11 10:00:00 28.5 0 Calma 10 Nordeste 0 -- -- 68
2020-08-11 09:00:00 26.4 4 Nordeste 12 Norte 1 -- -- 78
2020-08-11 08:00:00 25.6 5 Noroeste 14 Norte 0 -- -- 66
2020-08-11 07:00:00 25.7 5 Noroeste 14 Noroeste 0 -- -- 63
2020-08-11 06:00:00 25.9 10 Noroeste 16 Noroeste 0 -- -- 61
2020-08-11 05:00:00 25.8 11 Noroeste 17 Noroeste 0 -- -- 61
2020-08-11 04:00:00 25.6 5 Norte 9 Norte 0 -- -- 63
2020-08-11 03:00:00 25.6 2 Sur 8 Sudeste 0 -- -- 78
2020-08-11 02:00:00 26.4 2 Nordeste 10 Este 0 -- -- 78
2020-08-11 01:00:00 26.8 6 Norte 12 Noroeste 0 -- -- 65
2020-08-11 00:00:00 26.9 5 Nordeste 23 Norte 0 -- -- 77
2020-08-10 23:00:00 26.9 13 Norte 21 Norte 0 -- -- 73
2020-08-10 22:00:00 25.7 14 Nordeste 31 Sudeste 0 -- -- 85
2020-08-10 21:00:00 26.4 11 Sudeste 15 Sudeste 0 -- -- 84
2020-08-10 20:00:00 27.3 6 Este 9 Este 0 -- -- 78
2020-08-10 19:00:00 28.6 3 Nordeste 8 Nordeste 0 -- -- 69
2020-08-10 18:00:00 28.2 5 Este 8 Nordeste 0 -- -- 71
2020-08-10 17:00:00 27.5 3 Sudeste 12 Sur 0 -- -- 74
2020-08-10 16:00:00 27.5 4 Sudeste 6 Sur 0 -- -- 71
2020-08-10 15:00:00 27.2 3 Sur 10 Sudeste 0 -- -- 71
2020-08-10 14:00:00 27.8 3 Sur 10 Sur 0 -- -- 67
2020-08-10 13:00:00 27.8 6 Nordeste 25 Este 0.6 -- -- 73
2020-08-10 12:00:00 27.5 5 Sur 24 Este 0 -- -- 72
2020-08-10 11:00:00 27.6 14 Este 28 Este 0 -- -- 72
2020-08-10 10:00:00 26.6 18 Este 28 Este 0 -- -- 75
2020-08-10 09:00:00 25.8 3 Nordeste 10 Nordeste 0 -- -- 80
2020-08-10 08:00:00 25.8 5 Nordeste 16 Norte 0 -- -- 76
2020-08-10 07:00:00 24.1 6 Norte 14 Nordeste 0 -- -- 78
2020-08-10 06:00:00 25.2 9 Oeste 14 Oeste 0 -- -- 79
2020-08-10 05:00:00 24.3 5 Sudoeste 10 Oeste 0 -- -- 63
2020-08-10 04:00:00 24 6 Norte 10 Noroeste 0 -- -- 64
2020-08-10 03:00:00 23.9 2 Norte 6 Sudoeste 0 -- -- 87
2020-08-10 02:00:00 24.9 0 Calma 6 Noroeste 0 -- -- 90
2020-08-10 01:00:00 25 5 Sudeste 10 Nordeste 0 -- -- 90
2020-08-10 00:00:00 26.1 8 Nordeste 9 Nordeste 0 -- -- 82
2020-08-09 23:00:00 26.5 3 Nordeste 9 Nordeste 0 -- -- 77
2020-08-09 22:00:00 25.6 4 Noroeste 13 Sur 0 -- -- 85
2020-08-09 21:00:00 25.8 9 Sudeste 13 Nordeste 0 -- -- 85
2020-08-09 20:00:00 26.3 7 Sur 9 Sur 0 -- -- 81
2020-08-09 19:00:00 26.8 4 Sur 8 Sur 0 -- -- 77
2020-08-09 18:00:00 26.8 5 Sur 8 Sudoeste 0 -- -- 76
2020-08-09 17:00:00 28.2 5 Sudoeste 7 Sudoeste 0 -- -- 71
2020-08-09 16:00:00 27.1 4 Sudoeste 7 Sudoeste 0 -- -- 74
2020-08-09 15:00:00 26.4 5 Sudoeste 10 Sur 0 -- -- 74
2020-08-09 14:00:00 26.1 7 Sur 9 Sudoeste 0 -- -- 78
2020-08-09 13:00:00 26 6 Sur 9 Sur 0 -- -- 76
2020-08-09 12:00:00 26.2 5 Sur 9 Sudeste 0 -- -- 66
2020-08-09 11:00:00 26.8 4 Sudeste 6 Este 0 -- -- 66
2020-08-09 10:00:00 27.6 0 Calma 7 Norte 0 -- -- 48
2020-08-09 09:00:00 25.5 5 Noroeste 13 Noroeste 0 -- -- 46
2020-08-09 08:00:00 23.1 5 Noroeste 9 Noroeste 0 -- -- 45
2020-08-09 07:00:00 22.8 6 Norte 11 Noroeste 0 -- -- 51
2020-08-09 06:00:00 23.2 5 Norte 8 Norte 0 -- -- 53
2020-08-09 05:00:00 23.3 2 Sudoeste 6 Oeste 0 -- -- 53
2020-08-09 04:00:00 24.1 5 Oeste 10 Sudoeste 0 -- -- 60
2020-08-09 03:00:00 24.4 0 Calma 12 Norte 0 -- -- 57
2020-08-09 02:00:00 25 7 Noroeste 15 Noroeste 0 -- -- 51
2020-08-09 01:00:00 24.6 12 Norte 17 Norte 0 -- -- 54
2020-08-09 00:00:00 24.4 5 Norte 10 Norte 0 -- -- 65
2020-08-08 23:00:00 25.2 5 Nordeste 7 Nordeste 0 -- -- 83
2020-08-08 22:00:00 25.5 3 Nordeste 5 Nordeste 0 -- -- 82
2020-08-08 21:00:00 25.6 3 Sudeste 9 Sudeste 0 -- -- 80
2020-08-08 20:00:00 26.4 5 Sur 8 Sur 0 -- -- 76
2020-08-08 19:00:00 27.7 4 Sudoeste 8 Sudoeste 0 -- -- 72
2020-08-08 18:00:00 26.8 3 Sur 6 Sudoeste 0 -- -- 73
2020-08-08 17:00:00 28.3 4 Sudoeste 6 Sudoeste 0 -- -- 71
2020-08-08 16:00:00 26.3 5 Sur 9 Sur 0 -- -- 81
2020-08-08 15:00:00 26.6 6 Sudeste 8 Sudeste 0 -- -- 80
2020-08-08 14:00:00 26.8 4 Este 8 Este 0 -- -- 78
2020-08-08 13:00:00 26.8 3 Sudeste 11 Este 0 -- -- 74
2020-08-08 12:00:00 27 5 Noroeste 12 Oeste 0 -- -- 71
2020-08-08 11:00:00 27.8 4 Nordeste 13 Sudeste 0 -- -- 70
2020-08-08 10:00:00 26.1 9 Sudoeste 13 Oeste 0 -- -- 72
2020-08-08 09:00:00 24.7 8 Nordeste 11 Nordeste 0 -- -- 62
2020-08-08 08:00:00 23.7 8 Noroeste 13 Norte 0 -- -- 54
2020-08-08 07:00:00 23.6 2 Norte 10 Norte 0 -- -- 62
2020-08-08 06:00:00 24.3 5 Noroeste 19 Oeste 0 -- -- 86
2020-08-08 05:00:00 24.5 13 Oeste 17 Oeste 0 -- -- 73
2020-08-08 04:00:00 24.5 5 Oeste 13 Oeste 0 -- -- 54
2020-08-08 03:00:00 23.6 0 Calma 13 Oeste 0 -- -- 71
2020-08-08 02:00:00 24.3 7 Oeste 12 Oeste 0 -- -- 77
2020-08-08 01:00:00 25 3 Oeste 13 Norte 0 -- -- 83
2020-08-08 00:00:00 25.1 0 Calma 6 Oeste 0 -- -- 89
2020-08-07 23:00:00 25.3 3 Sudoeste 9 Sudeste 0 -- -- 87
2020-08-07 22:00:00 25.7 5 Nordeste 7 Nordeste 0 -- -- 84
2020-08-07 21:00:00 25.9 4 Este 18 Sudeste 0 -- -- 84
2020-08-07 20:00:00 26.7 7 Sudeste 13 Este 0 -- -- 79
2020-08-07 19:00:00 27.7 9 Nordeste 23 Este 0 -- -- 77
2020-08-07 18:00:00 26.4 16 Sudeste 25 Sudeste 0 -- -- 81
2020-08-07 17:00:00 26.3 19 Sudeste 31 Sudeste 0 -- -- 82
2020-08-07 16:00:00 26.3 24 Sudeste 33 Sudeste 0 -- -- 80
2020-08-07 15:00:00 26.4 26 Sudeste 33 Este 0 -- -- 78
2020-08-07 14:00:00 26.3 23 Sudeste 32 Este 0 -- -- 79
2020-08-07 13:00:00 26 22 Sudeste 36 Sudeste 0 -- -- 79
2020-08-07 12:00:00 25.9 20 Sudeste 27 Sudeste 0 -- -- 81
2020-08-07 11:00:00 26.2 17 Sudeste 22 Sudeste 0 -- -- 76
2020-08-07 10:00:00 27.1 18 Este 25 Este 0 -- -- 67
2020-08-07 09:00:00 26 8 Norte 14 Norte 0 -- -- 62
2020-08-07 08:00:00 23.8 9 Norte 17 Norte 0 -- -- 64
2020-08-07 07:00:00 23.5 7 Norte 14 Norte 0 -- -- 66
2020-08-07 06:00:00 24.4 6 Norte 12 Norte 0 -- -- 69
2020-08-07 05:00:00 25.6 4 Nordeste 19 Sudeste 0 -- -- 77
2020-08-07 04:00:00 25.9 15 Este 28 Este 0 -- -- 71
2020-08-07 03:00:00 26.2 20 Nordeste 31 Este 0 -- -- 66
2020-08-07 02:00:00 26.6 26 Nordeste 35 Nordeste 0 -- -- 62
2020-08-07 01:00:00 26.8 21 Este 33 Nordeste 0 -- -- 61
2020-08-07 00:00:00 27.2 23 Nordeste 33 Este 0 -- -- 54
2020-08-06 23:00:00 27 21 Nordeste 35 Este 0 -- -- 57
2020-08-06 22:00:00 26.4 18 Nordeste 29 Este 0 -- -- 59
2020-08-06 21:00:00 26.2 19 Este 28 Este 0 -- -- 64
2020-08-06 20:00:00 27 19 Este 32 Sudeste 0 -- -- 57
2020-08-06 19:00:00 27.1 25 Sudeste 33 Este 0 -- -- 57
2020-08-06 18:00:00 26.4 25 Sudeste 33 Sudeste 0 -- -- 65
2020-08-06 17:00:00 26.2 25 Sudeste 30 Sudeste 0 -- -- 67
2020-08-06 16:00:00 26.7 19 Este 27 Este 0 -- -- 64
2020-08-06 15:00:00 26.5 17 Este 29 Sudeste 0 -- -- 65
2020-08-06 14:00:00 26.3 23 Sudeste 32 Este 0 -- -- 65
2020-08-06 13:00:00 26.4 22 Sudeste 33 Sudeste 0 -- -- 65
2020-08-06 12:00:00 26.2 20 Sudeste 30 Sudeste 0 -- -- 70
2020-08-06 11:00:00 25.9 17 Sudeste 28 Este 0 -- -- 75
2020-08-06 10:00:00 27.3 21 Este 32 Este 0 -- -- 60
2020-08-06 09:00:00 27.1 15 Este 21 Este 0 -- -- 61
2020-08-06 08:00:00 25.9 9 Norte 18 Nordeste 0 -- -- 50
2020-08-06 07:00:00 25.4 10 Nordeste 22 Nordeste 0 -- -- 53
2020-08-06 06:00:00 25.9 15 Nordeste 27 Nordeste 0 -- -- 60
2020-08-06 05:00:00 26.1 19 Nordeste 30 Nordeste 0 -- -- 61
2020-08-06 04:00:00 26 18 Nordeste 25 Nordeste 0 -- -- 64
2020-08-06 03:00:00 25.3 8 Norte 16 Nordeste 0 -- -- 59
2020-08-06 02:00:00 24.7 6 Norte 15 Norte 0 -- -- 64
2020-08-06 01:00:00 25 7 Norte 17 Norte 0 -- -- 65
2020-08-06 00:00:00 25 9 Norte 12 Norte 0 -- -- 68
2020-08-05 23:00:00 25.8 4 Norte 9 Nordeste 0 -- -- 70
2020-08-05 22:00:00 25.8 5 Nordeste 7 Nordeste 0 -- -- 71
2020-08-05 21:00:00 26.2 6 Nordeste 9 Nordeste 0 -- -- 69
2020-08-05 20:00:00 27.6 4 Nordeste 7 Nordeste 0 -- -- 65
2020-08-05 19:00:00 27.2 3 Este 15 Este 0 -- -- 68
2020-08-05 18:00:00 26.9 9 Sudeste 21 Sudeste 0 -- -- 68
2020-08-05 17:00:00 26.2 11 Sudeste 26 Sudeste 0 -- -- 79
2020-08-05 16:00:00 25.8 19 Sudeste 27 Sudeste 0 -- -- 80
2020-08-05 15:00:00 25.5 20 Sudeste 26 Sudeste 0 -- -- 81
2020-08-05 14:00:00 25.3 13 Sudeste 19 Sudeste 0 -- -- 85
2020-08-05 13:00:00 25 13 Sudeste 22 Sudeste 0 -- -- 86
2020-08-05 12:00:00 24.8 17 Sudeste 22 Sudeste 0 -- -- 89
2020-08-05 11:00:00 24.8 14 Sudeste 20 Sudeste 0 -- -- 88
2020-08-05 10:00:00 25.3 14 Sudeste 17 Sudeste 0 -- -- 84
2020-08-05 09:00:00 25.9 2 Sudoeste 14 Noroeste 0 -- -- 75
2020-08-05 08:00:00 24 9 Norte 15 Norte 0 -- -- 76
2020-08-05 07:00:00 23.9 8 Norte 15 Este 0 -- -- 82
2020-08-05 06:00:00 24.2 5 Nordeste 14 Este 0 -- -- 82
2020-08-05 05:00:00 24 3 Nordeste 9 Nordeste 0 -- -- 85
2020-08-05 04:00:00 23.7 2 Nordeste 5 Este 0 -- -- 85
2020-08-05 03:00:00 24.2 0 Calma 4 Norte 0 -- -- 84
2020-08-05 02:00:00 24.9 3 Norte 9 Nordeste 0 -- -- 83
2020-08-05 01:00:00 24.9 4 Nordeste 8 Nordeste 0 -- -- 83
2020-08-05 00:00:00 25.4 3 Noroeste 9 Nordeste 0 -- -- 82
2020-08-04 23:00:00 25.4 6 Nordeste 9 Nordeste 0 -- -- 83
2020-08-04 22:00:00 25.2 5 Nordeste 14 Sudeste 0 -- -- 84
2020-08-04 21:00:00 24.5 3 Nordeste 22 Sudeste 0 -- -- 87
2020-08-04 20:00:00 24.5 18 Sudeste 24 Sudeste 0 -- -- 85
2020-08-04 19:00:00 25 18 Este 29 Este 0 -- -- 83
2020-08-04 18:00:00 25 26 Este 32 Este 0 -- -- 82
2020-08-04 17:00:00 25 25 Sudeste 32 Este 0 -- -- 82
2020-08-04 16:00:00 25.2 27 Este 34 Este 0 -- -- 81
2020-08-04 15:00:00 25.4 29 Este 38 Este 0 -- -- 81
2020-08-04 14:00:00 25.3 29 Este 36 Este 0 -- -- 82
2020-08-04 13:00:00 25.3 30 Este 36 Este 0 -- -- 84
2020-08-04 12:00:00 26.3 23 Este 36 Este 0 -- -- 81
2020-08-04 11:00:00 25.1 23 Este 32 Este 0 -- -- 85
2020-08-04 10:00:00 25.9 16 Este 21 Este 0 -- -- 78
2020-08-04 09:00:00 25.1 0 Calma 7 Noroeste 0 -- -- 72
2020-08-04 08:00:00 23.8 5 Norte 8 Noroeste 0 -- -- 74
2020-08-04 07:00:00 23.5 0 Calma 5 Nordeste 0 -- -- 77
2020-08-04 06:00:00 23.9 0 Calma 9 Oeste 0 -- -- 74
2020-08-04 05:00:00 22.7 3 Noroeste 9 Oeste 0 -- -- 79
2020-08-04 04:00:00 23.6 6 Sudoeste 9 Sudeste 0 -- -- 85
2020-08-04 03:00:00 23.9 3 Noroeste 8 Oeste 0 -- -- 80
2020-08-04 02:00:00 24.2 4 Sudoeste 8 Oeste 0 -- -- 80
2020-08-04 01:00:00 24.2 6 Nordeste 24 Nordeste 0 -- -- 77
2020-08-04 00:00:00 24.3 19 Nordeste 25 Nordeste 0 -- -- 75
2020-08-03 23:00:00 24 3 Sur 8 Sur 0 -- -- 76
2020-08-03 22:00:00 24.9 8 Nordeste 17 Nordeste 0 -- -- 72
2020-08-03 21:00:00 25.3 13 Nordeste 16 Nordeste 0 -- -- 71
2020-08-03 20:00:00 26.4 9 Norte 11 Norte 0 -- -- 66
2020-08-03 19:00:00 26.7 9 Nordeste 20 Sudoeste 0 -- -- 63
2020-08-03 18:00:00 27.2 6 Sudoeste 37 Sudoeste 0 -- -- 59
2020-08-03 17:00:00 26.3 29 Sudoeste 45 Sudoeste 0 -- -- 62
2020-08-03 16:00:00 24.9 26 Sudoeste 45 Sudoeste 0 -- -- 71
2020-08-03 15:00:00 26.1 23 Sudoeste 34 Sudoeste 0 -- -- 62
2020-08-03 14:00:00 27.2 13 Sudoeste 30 Sur 0 -- -- 60
2020-08-03 13:00:00 28.8 9 Nordeste 20 Nordeste 0 -- -- 51
2020-08-03 12:00:00 28 3 Sudoeste 24 Oeste 0 -- -- 49
2020-08-03 11:00:00 26.7 15 Oeste 33 Oeste 0 -- -- 58
2020-08-03 10:00:00 25.1 11 Nordeste 13 Nordeste 0 -- -- 72
2020-08-03 09:00:00 24.1 3 Nordeste 13 Oeste 0 -- -- 66
2020-08-03 08:00:00 23.3 16 Sudoeste 27 Sudoeste 0 -- -- 77
2020-08-03 07:00:00 23.1 5 Oeste 27 Oeste 0 -- -- 75
2020-08-03 06:00:00 23.4 6 Noroeste 17 Oeste 0 -- -- 66
2020-08-03 05:00:00 22.7 0 Calma 18 Sudoeste 0 -- -- 55
2020-08-03 04:00:00 23.8 6 Oeste 31 Sudoeste 0 -- -- 57
2020-08-03 03:00:00 24.7 23 Oeste 38 Oeste 0 -- -- 53
2020-08-03 02:00:00 24.8 8 Nordeste 11 Nordeste 0 -- -- 53
2020-08-03 01:00:00 25.3 4 Nordeste 12 Norte 0 -- -- 48
2020-08-03 00:00:00 26.3 5 Norte 24 Sudoeste 0 -- -- 39
2020-08-02 23:00:00 26.2 22 Oeste 37 Sudoeste 0 -- -- 57
2020-08-02 22:00:00 26.1 31 Sudoeste 44 Sudoeste 0 -- -- 61
2020-08-02 21:00:00 27.5 30 Sudoeste 42 Sudoeste 0 -- -- 54
2020-08-02 20:00:00 29.5 32 Sudoeste 42 Sudoeste 0 -- -- 48
2020-08-02 19:00:00 33.3 21 Oeste 31 Oeste 0 -- -- 38
2020-08-02 18:00:00 28.7 6 Nordeste 17 Nordeste 0 -- -- 64
2020-08-02 17:00:00 27.8 16 Nordeste 20 Nordeste 0 -- -- 70
2020-08-02 16:00:00 27.5 5 Sudoeste 10 Sudoeste 0 -- -- 67
2020-08-02 15:00:00 28.4 7 Nordeste 10 Nordeste 0 -- -- 70
2020-08-02 14:00:00 27.9 6 Este 12 Nordeste 0 -- -- 73
2020-08-02 13:00:00 27.8 6 Este 12 Nordeste 0 -- -- 73
2020-08-02 12:00:00 28.2 3 Nordeste 7 Sur 0 -- -- 66
2020-08-02 11:00:00 27.4 6 Sur 12 Sudoeste 0 -- -- 73
2020-08-02 10:00:00 26 6 Sudoeste 10 Sudoeste 0 -- -- 72
2020-08-02 09:00:00 26.3 4 Nordeste 9 Noroeste 0 -- -- 65
2020-08-02 08:00:00 24.9 2 Este 11 Oeste 0 -- -- 76
2020-08-02 07:00:00 24.7 10 Oeste 18 Sudoeste 0 -- -- 81
2020-08-02 06:00:00 25.8 6 Norte 14 Norte 0 -- -- 73
2020-08-02 05:00:00 25.8 9 Nordeste 15 Nordeste 0 -- -- 80
2020-08-02 04:00:00 25.5 13 Nordeste 15 Nordeste 0 -- -- 83
2020-08-02 03:00:00 25.9 3 Sudoeste 20 Nordeste 0 -- -- 74
2020-08-02 02:00:00 25 6 Nordeste 8 Nordeste 0 -- -- 85
2020-08-02 01:00:00 25.5 2 Nordeste 6 Sudoeste 0 -- -- 85
2020-08-02 00:00:00 25.9 3 Sudoeste 7 Sudoeste 0 -- -- 82
2020-08-01 23:00:00 25.7 2 Sudoeste 7 Oeste 0 -- -- 85
2020-08-01 22:00:00 26.7 0 Calma 8 Este 0 -- -- 79
2020-08-01 21:00:00 26.9 6 Nordeste 12 Nordeste 0 -- -- 76
2020-08-01 20:00:00 27.6 6 Nordeste 8 Nordeste 0 -- -- 72
2020-08-01 19:00:00 28.1 4 Este 8 Nordeste 0 -- -- 70
2020-08-01 18:00:00 28 3 Este 6 Sur 0 -- -- 69
2020-08-01 17:00:00 29 2 Este 6 Este 0 -- -- 70
2020-08-01 16:00:00 27.8 5 Este 8 Nordeste 0 -- -- 75
2020-08-01 15:00:00 27 2 Sur 8 Sudeste 0 -- -- 77
2020-08-01 14:00:00 26.2 5 Sudeste 7 Este 0 -- -- 82
2020-08-01 13:00:00 26.4 4 Este 8 Sudeste 0 -- -- 82
2020-08-01 12:00:00 27.5 4 Este 11 Nordeste 0 -- -- 80
2020-08-01 11:00:00 26.7 6 Nordeste 12 Este 0 -- -- 82
2020-08-01 10:00:00 25.4 4 Nordeste 14 Sur 0 -- -- 88
2020-08-01 09:00:00 24.9 4 Sudoeste 9 Sur 0 -- -- 92
2020-08-01 08:00:00 24.5 3 Nordeste 10 Nordeste 0 -- -- 93
2020-08-01 07:00:00 24.5 8 Nordeste 13 Sur 0 -- -- 92
2020-08-01 06:00:00 24.6 4 Sur 9 Oeste 0 -- -- 90
2020-08-01 05:00:00 24.7 4 Oeste 14 Este 0 -- -- 91
2020-08-01 04:00:00 25.1 9 Este 14 Nordeste 0 -- -- 88
2020-08-01 03:00:00 25.5 13 Sudoeste 27 Sudoeste 0 -- -- 84
2020-08-01 02:00:00 25.6 10 Norte 21 Oeste 0 -- -- 85
2020-08-01 01:00:00 25 13 Sudoeste 19 Sudoeste 0 -- -- 90
2020-08-01 00:00:00 24.9 11 Sudoeste 15 Sudoeste 0 -- -- 90
2020-07-31 23:00:00 25.1 4 Oeste 10 Sudoeste 0 -- -- 89
2020-07-31 22:00:00 25.1 7 Sudoeste 12 Sudoeste 0 -- -- 89
2020-07-31 21:00:00 25.6 10 Sudoeste 13 Sudoeste 0 -- -- 88
2020-07-31 20:00:00 26.7 8 Sudoeste 11 Sudoeste 0 -- -- 84
2020-07-31 19:00:00 27.8 6 Sudoeste 10 Sudoeste 0 -- -- 81
2020-07-31 18:00:00 27.7 9 Sudoeste 12 Sudoeste 0 -- -- 82
2020-07-31 17:00:00 26.7 7 Sudeste 11 Sur 0 -- -- 84
2020-07-31 16:00:00 27.3 3 Sudoeste 9 Este 0 -- -- 83
2020-07-31 15:00:00 26.7 6 Sudeste 8 Sudeste 0 -- -- 84
2020-07-31 14:00:00 26.8 4 Sur 9 Sudeste 0 -- -- 82
2020-07-31 13:00:00 27.2 4 Sur 6 Sudeste 0 -- -- 82
2020-07-31 12:00:00 27.5 0 Calma 5 Sur 0 -- -- 81
2020-07-31 11:00:00 27.1 4 Sudoeste 6 Sudoeste 0 -- -- 75
2020-07-31 10:00:00 27.1 0 Calma 4 Sur 0 -- -- 71
2020-07-31 09:00:00 25.1 5 Noroeste 8 Noroeste 0 -- -- 74
2020-07-31 08:00:00 24 3 Noroeste 7 Oeste 0 -- -- 80
2020-07-31 07:00:00 24.3 4 Oeste 9 Oeste 0 -- -- 83
2020-07-31 06:00:00 23.9 6 Oeste 9 Sudoeste 0 -- -- 85
2020-07-31 05:00:00 24.1 7 Oeste 13 Norte 0 -- -- 78
2020-07-31 04:00:00 24.9 8 Noroeste 13 Nordeste 0 -- -- 82
2020-07-31 03:00:00 24.9 3 Norte 10 Norte 0 -- -- 86
2020-07-31 02:00:00 25 0 Calma 12 Este 0 -- -- 86
2020-07-31 01:00:00 25.1 3 Nordeste 5 Nordeste 0 -- -- 85
2020-07-31 00:00:00 25.7 0 Calma 8 Nordeste 0 -- -- 83
2020-07-30 23:00:00 25.7 2 Nordeste 8 Nordeste 0 -- -- 84
2020-07-30 22:00:00 26 7 Nordeste 14 Nordeste 0 -- -- 83
2020-07-30 21:00:00 26.5 0 Calma 6 Nordeste 0 -- -- 81
2020-07-30 20:00:00 27.6 5 Nordeste 14 Nordeste 0 -- -- 76
2020-07-30 19:00:00 27.3 8 Este 15 Nordeste 0 -- -- 77
2020-07-30 18:00:00 28.2 4 Nordeste 21 Este 0 -- -- 73
2020-07-30 17:00:00 27.8 10 Nordeste 17 Este 0 -- -- 76
2020-07-30 16:00:00 26.5 14 Este 23 Sudeste 0 -- -- 82
2020-07-30 15:00:00 25.7 14 Sudeste 29 Sudeste 0 -- -- 85
2020-07-30 14:00:00 25.6 19 Sudeste 28 Sudeste 0 -- -- 85
2020-07-30 13:00:00 25.8 22 Sudeste 27 Sudeste 0 -- -- 84
2020-07-30 12:00:00 25.7 16 Este 24 Sudeste 0 -- -- 85
2020-07-30 11:00:00 25.7 17 Este 22 Este 0 -- -- 87
2020-07-30 10:00:00 26.6 9 Este 23 Este 0 -- -- 81
2020-07-30 09:00:00 25.9 18 Este 23 Este 0 -- -- 83
2020-07-30 08:00:00 25.2 18 Este 22 Este 0 -- -- 86
2020-07-30 07:00:00 25.3 8 Nordeste 14 Norte 0 -- -- 84
2020-07-30 06:00:00 25.2 4 Norte 9 Norte 0 -- -- 84
2020-07-30 05:00:00 25.4 3 Norte 10 Este 0 -- -- 85
2020-07-30 04:00:00 25.3 3 Norte 22 Este 0 -- -- 87
2020-07-30 03:00:00 25.3 14 Nordeste 24 Norte 0 -- -- 87
2020-07-30 02:00:00 25.3 10 Este 18 Este 0 -- -- 87
2020-07-30 01:00:00 25.4 9 Nordeste 20 Este 0 -- -- 87
2020-07-30 00:00:00 25.4 16 Este 23 Este 0 -- -- 86
2020-07-29 23:00:00 25.5 16 Nordeste 22 Este 0 -- -- 85
2020-07-29 22:00:00 25.7 13 Este 17 Este 0 -- -- 86
2020-07-29 21:00:00 26.6 10 Nordeste 13 Nordeste 0 -- -- 81
2020-07-29 20:00:00 27.3 3 Nordeste 5 Nordeste 0 -- -- 75
2020-07-29 19:00:00 27.1 2 Este 5 Nordeste 0 -- -- 73
2020-07-29 18:00:00 27.4 3 Este 5 Este 0 -- -- 70
2020-07-29 17:00:00 26.6 3 Este 5 Este 0 -- -- 70
2020-07-29 16:00:00 26.8 0 Calma 5 Nordeste 0 -- -- 71
2020-07-29 15:00:00 25.9 4 Este 6 Este 0 -- -- 78
2020-07-29 14:00:00 26.6 3 Este 7 Este 0 -- -- 74
2020-07-29 13:00:00 26.8 5 Este 11 Sudeste 0 -- -- 74
2020-07-29 12:00:00 26.1 3 Sudeste 8 Este 0 -- -- 77
2020-07-29 11:00:00 26.1 5 Nordeste 14 Este 0 -- -- 82
2020-07-29 10:00:00 26 5 Nordeste 11 Nordeste 0 -- -- 81
2020-07-29 09:00:00 24.8 8 Nordeste 10 Nordeste 0 -- -- 84
2020-07-29 08:00:00 23.2 8 Nordeste 10 Nordeste 0 -- -- 89
2020-07-29 07:00:00 23.4 3 Sudoeste 8 Norte 0 -- -- 88
2020-07-29 06:00:00 23.9 7 Nordeste 13 Noroeste 0 -- -- 75
2020-07-29 05:00:00 23.7 6 Norte 12 Norte 0 -- -- 81
2020-07-29 04:00:00 23.5 5 Norte 10 Nordeste 0 -- -- 84
2020-07-29 03:00:00 23.7 8 Nordeste 10 Nordeste 0 -- -- 88
2020-07-29 02:00:00 24.1 4 Nordeste 5 Nordeste 0 -- -- 85
2020-07-29 01:00:00 24.3 0 Calma 6 Sudoeste 0 -- -- 84
2020-07-29 00:00:00 24.3 7 Sudoeste 9 Sudoeste 0 -- -- 84
2020-07-28 23:00:00 24.8 6 Sudoeste 13 Sudoeste 0 -- -- 81
2020-07-28 22:00:00 24.5 5 Sudoeste 10 Sudoeste 0 -- -- 88
2020-07-28 21:00:00 25.2 5 Sudoeste 7 Sudoeste 0 -- -- 85
2020-07-28 20:00:00 25.7 3 Sur 6 Sudeste 0 -- -- 81
2020-07-28 19:00:00 25.3 4 Sur 8 Sudeste 0 -- -- 83
2020-07-28 18:00:00 26.2 5 Sudeste 8 Sudeste 0 -- -- 82
2020-07-28 17:00:00 26.3 7 Este 10 Este 0 -- -- 82
2020-07-28 16:00:00 26.1 4 Este 10 Sudeste 0 -- -- 82
2020-07-28 15:00:00 25.5 9 Sudeste 11 Sudeste 0 -- -- 84
2020-07-28 14:00:00 25 8 Sur 9 Sur 0 -- -- 82
2020-07-28 13:00:00 25.4 2 Sudeste 8 Sur 0 -- -- 82
2020-07-28 12:00:00 24.9 6 Sudoeste 8 Sudoeste 0 -- -- 83
2020-07-28 11:00:00 24.8 5 Sudoeste 14 Sur 0 -- -- 84
2020-07-28 10:00:00 24.6 6 Sur 10 Sur 0 -- -- 77
2020-07-28 09:00:00 24.4 5 Sudoeste 10 Noroeste 0 -- -- 71
2020-07-28 08:00:00 23 6 Noroeste 9 Noroeste 0 -- -- 68
2020-07-28 07:00:00 22.5 6 Noroeste 11 Noroeste 0 -- -- 74
2020-07-28 06:00:00 22.8 6 Noroeste 11 Norte 0 -- -- 73
2020-07-28 05:00:00 23.2 4 Noroeste 5 Noroeste 0 -- -- 74
2020-07-28 04:00:00 23.3 2 Noroeste 8 Sudoeste 0 -- -- 80
2020-07-28 03:00:00 24.7 4 Sudoeste 16 Oeste 0 -- -- 78
2020-07-28 02:00:00 24.3 9 Oeste 13 Oeste 0 -- -- 75
2020-07-28 01:00:00 25.7 6 Norte 12 Norte 0 -- -- 74
2020-07-28 00:00:00 26.1 2 Norte 7 Noroeste 0 -- -- 77
2020-07-27 23:00:00 26.2 3 Nordeste 5 Nordeste 0 -- -- 78
2020-07-27 22:00:00 26 3 Nordeste 4 Nordeste 0 -- -- 78
2020-07-27 21:00:00 26.3 0 Calma 3 Sudeste 0 -- -- 75
2020-07-27 20:00:00 26.8 2 Este 4 Sur 0 -- -- 71
2020-07-27 19:00:00 26.5 2 Sudeste 5 Sudeste 0 -- -- 73
2020-07-27 18:00:00 27.1 3 Sur 7 Sudeste 0 -- -- 72
2020-07-27 17:00:00 27.1 3 Sudeste 6 Sur 0 -- -- 71
2020-07-27 16:00:00 26.6 4 Sur 10 Sudeste 0 -- -- 72
2020-07-27 15:00:00 26.5 6 Sudeste 13 Sudeste 0 -- -- 70
2020-07-27 14:00:00 26 10 Sudeste 19 Sudeste 0 -- -- 74
2020-07-27 13:00:00 26.6 8 Nordeste 15 Sudeste 0 -- -- 71
2020-07-27 12:00:00 26.1 7 Sudeste 9 Sudeste 0 -- -- 71
2020-07-27 09:00:00 -- -- -- -- -- -- -- -- --
2020-07-27 08:00:00 -- -- -- -- -- -- -- -- --
2020-07-27 07:00:00 -- -- -- -- -- -- -- -- --
2020-07-27 06:00:00 -- -- -- -- -- -- -- -- --
2020-07-27 05:00:00 24.5 6 Noroeste 10 Norte 0 -- -- 62
2020-07-27 04:00:00 25.4 4 Noroeste 17 Sudoeste 0 -- -- 66
2020-07-27 03:00:00 25.7 7 Sudoeste 15 Norte 0 -- -- 73
2020-07-27 02:00:00 25.8 10 Noroeste 19 Norte 0 -- -- 76
2020-07-27 01:00:00 25.8 10 Norte 21 Norte 0 -- -- 78
2020-07-27 00:00:00 25.2 10 Norte 17 Norte 0 -- -- 82
2020-07-26 23:00:00 25.2 6 Nordeste 9 Nordeste 0 -- -- 87
2020-07-26 22:00:00 25.2 5 Nordeste 9 Nordeste 0 -- -- 87
2020-07-26 21:00:00 25.9 4 Nordeste 9 Nordeste 0 -- -- 85
2020-07-26 20:00:00 27.1 6 Nordeste 8 Nordeste 0 -- -- 81
2020-07-26 19:00:00 26.8 6 Este 8 Este 0 -- -- 81
2020-07-26 18:00:00 26.6 3 Este 5 Sudeste 0 -- -- 83
2020-07-26 17:00:00 26.3 4 Este 5 Este 0 -- -- 83
2020-07-26 16:00:00 26.1 4 Sudeste 6 Nordeste 0 -- -- 83
2020-07-26 15:00:00 26.4 5 Este 8 Este 0 -- -- 80
2020-07-26 14:00:00 26.2 3 Este 5 Este 0 -- -- 75
2020-07-26 13:00:00 24.9 3 Sur 6 Sur 0 -- -- 71
2020-07-26 12:00:00 25 5 Sudoeste 11 Sudoeste 0 -- -- 75
2020-07-26 11:00:00 25.4 9 Sudoeste 12 Sudoeste 0 -- -- 75
2020-07-26 10:00:00 25.2 4 Sudoeste 11 Nordeste 0 -- -- 72
2020-07-26 09:00:00 24.4 2 Oeste 5 Nordeste 0 -- -- 61
2020-07-26 08:00:00 23.5 3 Oeste 22 Norte 0 -- -- 63
2020-07-26 07:00:00 23 14 Norte 19 Noroeste 0 -- -- 53
2020-07-26 06:00:00 23.1 11 Noroeste 17 Noroeste 0 -- -- 55
2020-07-26 05:00:00 23.6 10 Noroeste 17 Noroeste 0 -- -- 52
2020-07-26 04:00:00 23.6 12 Noroeste 19 Noroeste 0 -- -- 52
2020-07-26 03:00:00 23.4 12 Noroeste 17 Norte 0 -- -- 54
2020-07-26 02:00:00 23.5 8 Norte 14 Norte 0 -- -- 60
2020-07-26 01:00:00 23.8 9 Norte 13 Norte 0 -- -- 57
2020-07-26 00:00:00 23.6 6 Norte 9 Norte 0 -- -- 62
2020-07-25 23:00:00 25 0 Calma 4 Sudeste 0 -- -- 87
2020-07-25 22:00:00 25.6 0 Calma 4 Nordeste 0 -- -- 79
2020-07-25 21:00:00 26.1 3 Este 4 Este 0 -- -- 82
2020-07-25 20:00:00 26.5 0 Calma 4 Este 0 -- -- 74
2020-07-25 19:00:00 25.9 3 Sudeste 6 Este 0 -- -- 74
2020-07-25 18:00:00 26.6 4 Este 8 Este 0 -- -- 68
2020-07-25 17:00:00 26.7 2 Sudeste 11 Este 0 -- -- 66
2020-07-25 16:00:00 27.3 4 Nordeste 21 Nordeste 0 -- -- 67
2020-07-25 15:00:00 27.2 4 Nordeste 13 Nordeste 0 -- -- 70
2020-07-25 14:00:00 27.5 5 Nordeste 17 Este 0 -- -- 77
2020-07-25 13:00:00 27.2 9 Nordeste 13 Este 0 -- -- 81
2020-07-25 12:00:00 27.3 4 Este 15 Este 0 -- -- 80
2020-07-25 11:00:00 27 2 Sudeste 4 Sudeste 0 -- -- 77
2020-07-25 10:00:00 26.7 3 Este 6 Nordeste 0 -- -- 74
2020-07-25 09:00:00 26 4 Nordeste 8 Norte 0 -- -- 76
2020-07-25 08:00:00 23.5 7 Norte 12 Noroeste 0 -- -- 73
2020-07-25 07:00:00 23.1 6 Noroeste 10 Norte 0 -- -- 76
2020-07-25 06:00:00 23.6 3 Norte 7 Noroeste 0 -- -- 78
2020-07-25 05:00:00 23.9 3 Norte 5 Nordeste 0 -- -- 78
2020-07-25 04:00:00 23.8 0 Calma 9 Noroeste 0 -- -- 80
2020-07-25 03:00:00 24.5 3 Noroeste 8 Norte 0 -- -- 83
2020-07-25 02:00:00 24.9 3 Norte 6 Norte 0 -- -- 81
2020-07-25 01:00:00 25.1 0 Calma 8 Sudoeste 0 -- -- 84
2020-07-25 00:00:00 25 6 Oeste 9 Oeste 0 -- -- 85
2020-07-24 23:00:00 25.4 8 Sudoeste 14 Sudoeste 0 -- -- 85
2020-07-24 22:00:00 25.5 11 Sudoeste 14 Sudoeste 0 -- -- 87
2020-07-24 21:00:00 25.7 12 Sudoeste 17 Sudoeste 0 -- -- 86
2020-07-24 20:00:00 25.9 12 Sudoeste 15 Sudoeste 0 -- -- 83
2020-07-24 19:00:00 25.9 8 Sudoeste 11 Sur 0 -- -- 82
2020-07-24 18:00:00 26 5 Sur 7 Sur 0 -- -- 82
2020-07-24 17:00:00 25.7 4 Sur 10 Sur 0 -- -- 85
2020-07-24 16:00:00 25.4 7 Sur 12 Sudoeste 0 -- -- 87
2020-07-24 15:00:00 25.4 10 Sudoeste 13 Sudoeste 0 -- -- 87
2020-07-24 14:00:00 25.7 9 Sudoeste 13 Sur 0 -- -- 86
2020-07-24 13:00:00 25.6 8 Sur 10 Sur 0 -- -- 83
2020-07-24 12:00:00 25.7 9 Sudoeste 10 Sudoeste 0 -- -- 83
2020-07-24 11:00:00 25.6 7 Sur 13 Sudoeste 0 -- -- 86
2020-07-24 10:00:00 25.3 12 Sudoeste 13 Sudoeste 0 -- -- 86
2020-07-24 09:00:00 25.4 5 Sudoeste 6 Sudoeste 0 -- -- 79
2020-07-24 08:00:00 24.2 0 Calma 4 Noroeste 0 -- -- 86
2020-07-24 07:00:00 24 0 Calma 6 Noroeste 0 -- -- 86
2020-07-24 06:00:00 23.9 4 Norte 8 Noroeste 0 -- -- 86
2020-07-24 05:00:00 24.4 0 Calma 5 Oeste 0 -- -- 86
2020-07-24 04:00:00 24.3 4 Oeste 7 Oeste 0 -- -- 86
2020-07-24 03:00:00 24.5 4 Oeste 7 Oeste 0 -- -- 87
2020-07-24 02:00:00 24.7 4 Oeste 6 Oeste 0 -- -- 89
2020-07-24 01:00:00 24.8 4 Sudoeste 8 Sudoeste 0 -- -- 90
2020-07-24 00:00:00 24.6 3 Sudoeste 5 Sur 0 -- -- 90
2020-07-23 23:00:00 24.6 4 Sur 6 Sudoeste 0 -- -- 89
2020-07-23 22:00:00 24.7 5 Sur 8 Sudoeste 0 -- -- 89
2020-07-23 21:00:00 25.2 4 Sur 8 Sur 0 -- -- 86
2020-07-23 20:00:00 25.8 6 Sur 9 Sur 0 -- -- 82
2020-07-23 19:00:00 25.8 6 Sur 8 Sur 0 -- -- 82
2020-07-23 18:00:00 26.1 8 Sur 10 Sudoeste 0 -- -- 82
2020-07-23 17:00:00 26.2 5 Sur 8 Sur 0 -- -- 81
2020-07-23 16:00:00 26.2 4 Sudeste 12 Sudeste 0 -- -- 82
2020-07-23 15:00:00 25.7 8 Sudeste 10 Sudeste 0 -- -- 84
2020-07-23 14:00:00 25.4 8 Sudeste 11 Sudeste 0 -- -- 83
2020-07-23 13:00:00 25.7 4 Sudeste 8 Sur 0 -- -- 84
2020-07-23 12:00:00 24.8 7 Sur 12 Sur 0 -- -- 87
2020-07-23 11:00:00 24.6 9 Sudoeste 14 Sudoeste 0 -- -- 88
2020-07-23 10:00:00 24.5 10 Sudoeste 13 Sudoeste 0 -- -- 88
2020-07-23 09:00:00 24.8 8 Sudoeste 12 Sudoeste 0 -- -- 84
2020-07-23 08:00:00 23.6 4 Oeste 14 Oeste 0 -- -- 80
2020-07-23 07:00:00 23 6 Noroeste 14 Norte 0 -- -- 81
2020-07-23 06:00:00 23.1 6 Norte 12 Noroeste 0 -- -- 82
2020-07-23 05:00:00 23.1 4 Noroeste 9 Noroeste 0 -- -- 84
2020-07-23 04:00:00 23.7 6 Nordeste 20 Este 0 -- -- 87
2020-07-23 03:00:00 24.3 16 Este 21 Este 0 -- -- 87
2020-07-23 02:00:00 24.3 14 Este 17 Este 0 -- -- 86
2020-07-23 01:00:00 24.4 6 Este 13 Oeste 0 -- -- 83
2020-07-23 00:00:00 24.7 7 Sudoeste 17 Oeste 0 -- -- 82
2020-07-22 23:00:00 24.8 13 Oeste 22 Sudoeste 0 -- -- 83
2020-07-22 22:00:00 25.2 16 Sudoeste 20 Sudoeste 0 -- -- 79
2020-07-22 21:00:00 25.1 17 Sudoeste 19 Sudoeste 0 -- -- 80
2020-07-22 20:00:00 25.2 15 Sudoeste 19 Sudoeste 0 -- -- 80
2020-07-22 19:00:00 25.3 13 Sudoeste 16 Sudoeste 0 -- -- 83
2020-07-22 18:00:00 25.7 9 Sudoeste 12 Sudoeste 0 -- -- 81
2020-07-22 17:00:00 25.6 7 Sur 11 Sudeste 0 -- -- 81
2020-07-22 16:00:00 25.6 8 Sudeste 10 Sudeste 0 -- -- 83
2020-07-22 15:00:00 25.4 8 Sur 10 Sudeste 0 -- -- 82
2020-07-22 14:00:00 25.4 7 Sur 10 Sur 0 -- -- 82
2020-07-22 13:00:00 25.3 8 Sur 10 Sur 0 -- -- 82
2020-07-22 12:00:00 25.3 8 Sudoeste 10 Sudoeste 0 -- -- 80
2020-07-22 11:00:00 25.7 6 Sur 8 Sur 0 -- -- 74
2020-07-22 10:00:00 26.4 3 Sudoeste 8 Noroeste 0 -- -- 69
2020-07-22 09:00:00 24 6 Noroeste 11 Norte 0 -- -- 68
2020-07-22 08:00:00 23 8 Norte 14 Noroeste 0 -- -- 70
2020-07-22 07:00:00 22.8 7 Norte 13 Noroeste 0 -- -- 70
2020-07-22 06:00:00 23.5 7 Norte 13 Norte 0 -- -- 67
2020-07-22 05:00:00 23.7 8 Noroeste 15 Norte 0 -- -- 69
2020-07-22 04:00:00 24.2 6 Norte 14 Norte 0 -- -- 71
2020-07-22 03:00:00 25.2 7 Este 16 Este 0 -- -- 79
2020-07-22 02:00:00 25.3 14 Nordeste 22 Nordeste 0 -- -- 77
2020-07-22 01:00:00 25.3 18 Nordeste 26 Nordeste 0 -- -- 78
2020-07-22 00:00:00 25.5 19 Este 35 Nordeste 0 -- -- 78
2020-07-21 23:00:00 25.6 21 Nordeste 28 Nordeste 0 -- -- 77
2020-07-21 22:00:00 25.5 14 Este 22 Este 0 -- -- 80
2020-07-21 21:00:00 25.8 12 Este 22 Este 0 -- -- 78
2020-07-21 20:00:00 25.8 15 Sudeste 26 Sudeste 0 -- -- 78
2020-07-21 19:00:00 25.8 17 Sudeste 22 Sudeste 0 -- -- 77
2020-07-21 18:00:00 26 18 Sudeste 24 Sudeste 0 -- -- 75
2020-07-21 17:00:00 25.8 16 Sudeste 22 Sudeste 0 -- -- 77
2020-07-21 16:00:00 26.1 12 Sudeste 25 Sudeste 0 -- -- 74
2020-07-21 15:00:00 25.7 15 Sudeste 23 Este 0 -- -- 75
2020-07-21 14:00:00 25.9 12 Este 33 Sudeste 0 -- -- 78
2020-07-21 13:00:00 25.7 22 Sudeste 31 Sudeste 0 -- -- 79
2020-07-21 12:00:00 25.8 19 Sudeste 23 Sudeste 0 -- -- 74
2020-07-21 11:00:00 26.2 6 Sur 10 Sudoeste 0 -- -- 67
2020-07-21 10:00:00 26.4 4 Sur 9 Oeste 0 -- -- 67
2020-07-21 09:00:00 24.6 5 Oeste 12 Oeste 0 -- -- 69
2020-07-21 08:00:00 24.4 3 Oeste 17 Nordeste 1.6 -- -- 69
2020-07-21 07:00:00 25.3 8 Norte 14 Norte 0 -- -- 53
2020-07-21 06:00:00 25.9 8 Norte 17 Nordeste 0 -- -- 51
2020-07-21 05:00:00 26.1 4 Norte 36 Nordeste 0 -- -- 54
2020-07-21 04:00:00 26.9 28 Este 37 Este 0 -- -- 52
2020-07-21 03:00:00 28.3 6 Nordeste 39 Nordeste 0 -- -- 45
2020-07-21 02:00:00 28.1 29 Nordeste 53 Nordeste 0 -- -- 44
2020-07-21 01:00:00 26.8 27 Nordeste 44 Nordeste 0 -- -- 52
2020-07-21 00:00:00 26.2 22 Este 27 Este 0 -- -- 59
2020-07-20 23:00:00 26.4 25 Nordeste 33 Nordeste 0 -- -- 52
2020-07-20 22:00:00 25.6 20 Este 29 Sudeste 0 -- -- 71
2020-07-20 21:00:00 25.9 24 Sudeste 30 Este 0 -- -- 70
2020-07-20 20:00:00 26.2 27 Este 32 Este 0 -- -- 65
2020-07-20 19:00:00 26 23 Este 31 Sudeste 0 -- -- 69
2020-07-20 18:00:00 26.1 24 Sudeste 32 Sudeste 0 -- -- 71
2020-07-20 17:00:00 25.5 27 Sudeste 38 Sudeste 0 -- -- 81
2020-07-20 16:00:00 25.2 28 Sudeste 39 Sudeste 0 -- -- 85
2020-07-20 15:00:00 25.6 28 Sudeste 38 Sudeste 0 -- -- 78
2020-07-20 14:00:00 27.1 9 Este 20 Este 0 -- -- 72
2020-07-20 13:00:00 25.9 9 Sudeste 15 Este 0 -- -- 74
2020-07-20 12:00:00 27 5 Este 12 Sudeste 0 -- -- 70
2020-07-20 11:00:00 27.7 3 Sudoeste 8 Sudeste 0 -- -- 63
2020-07-20 10:00:00 26.3 3 Sudeste 8 Norte 0 -- -- 68
2020-07-20 09:00:00 26.2 3 Nordeste 10 Noroeste 0 -- -- 65
2020-07-20 08:00:00 23.8 6 Nordeste 13 Norte 0 -- -- 74
2020-07-20 07:00:00 22.9 4 Noroeste 10 Noroeste 0 -- -- 78
2020-07-20 06:00:00 23.3 0 Calma 13 Noroeste 0 -- -- 82
2020-07-20 05:00:00 23 3 Noroeste 9 Norte 0 -- -- 82
2020-07-20 04:00:00 23.5 4 Norte 9 Noroeste 0 -- -- 81
2020-07-20 03:00:00 23.7 6 Norte 10 Norte 0 -- -- 81
2020-07-20 02:00:00 24 3 Norte 9 Nordeste 0 -- -- 84
2020-07-20 01:00:00 24.4 3 Sudoeste 8 Sur 0 -- -- 84
2020-07-20 00:00:00 24.7 4 Oeste 6 Sudoeste 0 -- -- 82
2020-07-19 23:00:00 24.7 2 Sudoeste 5 Este 0 -- -- 84
2020-07-19 22:00:00 24.7 4 Este 7 Sudoeste 0 -- -- 83
2020-07-19 21:00:00 25.3 3 Sudoeste 6 Sudoeste 0 -- -- 80
2020-07-19 20:00:00 25.3 6 Sur 12 Sur 0 -- -- 80
2020-07-19 19:00:00 25.4 6 Sur 8 Sur 0 -- -- 78
2020-07-19 18:00:00 25.7 6 Sur 9 Sudeste 0 -- -- 76
2020-07-19 17:00:00 25.4 6 Sur 10 Sur 0 -- -- 81
2020-07-19 16:00:00 25.4 5 Sur 8 Sur 0 -- -- 82
2020-07-19 15:00:00 25.3 5 Sudeste 9 Sudeste 0 -- -- 81
2020-07-19 14:00:00 25.1 7 Sudeste 10 Sudeste 0 -- -- 82
2020-07-19 13:00:00 25.3 8 Sudeste 10 Sudeste 0 -- -- 81
2020-07-19 12:00:00 25 6 Sudeste 8 Sudeste 0 -- -- 83
2020-07-19 11:00:00 24.7 8 Sudeste 12 Sudeste 0 -- -- 82
2020-07-19 10:00:00 25.8 2 Sur 4 Sudeste 0 -- -- 71
2020-07-19 09:00:00 25.6 0 Calma 12 Norte 0 -- -- 70
2020-07-19 08:00:00 22.8 6 Norte 12 Norte 0 -- -- 81
2020-07-19 07:00:00 22 9 Noroeste 14 Noroeste 0 -- -- 84
2020-07-19 06:00:00 22.4 6 Norte 10 Noroeste 0 -- -- 85
2020-07-19 05:00:00 22.6 5 Noroeste 9 Norte 0 -- -- 87
2020-07-19 04:00:00 23.3 3 Norte 6 Nordeste 0 -- -- 88
2020-07-19 03:00:00 23.4 5 Nordeste 10 Este 0 -- -- 89
2020-07-19 02:00:00 23.7 6 Este 9 Este 0 -- -- 91
2020-07-19 01:00:00 23.7 4 Este 6 Nordeste 0 -- -- 90
2020-07-19 00:00:00 23.7 4 Este 5 Este 0 -- -- 90
2020-07-18 23:00:00 23.9 4 Este 5 Este 0 -- -- 89
2020-07-18 22:00:00 24.1 2 Sudoeste 5 Sudoeste 0 -- -- 88
2020-07-18 21:00:00 24.3 3 Sudeste 5 Sudeste 0 -- -- 85
2020-07-18 20:00:00 25.3 3 Este 7 Sudeste 0 -- -- 82
2020-07-18 19:00:00 24.9 6 Sudeste 7 Sudeste 0 -- -- 84
2020-07-18 18:00:00 25.4 6 Sudeste 9 Este 0 -- -- 81
2020-07-18 17:00:00 25.3 7 Este 11 Sudeste 0 -- -- 81
2020-07-18 16:00:00 25.3 7 Sudeste 12 Este 0 -- -- 81
2020-07-18 15:00:00 25.1 9 Sudeste 14 Sudeste 0 -- -- 80
2020-07-18 14:00:00 25.2 11 Este 14 Este 0 -- -- 81
2020-07-18 13:00:00 25.4 10 Este 19 Sudeste 0 -- -- 80
2020-07-18 12:00:00 24.7 17 Sudeste 22 Sudeste 0 -- -- 83
2020-07-18 11:00:00 24.6 15 Sudeste 21 Sudeste 0 -- -- 82
2020-07-18 10:00:00 25.1 12 Sudeste 15 Sudeste 0 -- -- 74
2020-07-18 09:00:00 24.9 4 Norte 13 Norte 0 -- -- 67
2020-07-18 08:00:00 22.3 8 Noroeste 13 Noroeste 0 -- -- 74
2020-07-18 07:00:00 22.2 5 Norte 12 Norte 0 -- -- 75
2020-07-18 06:00:00 22.1 8 Noroeste 11 Norte 0 -- -- 78
2020-07-18 05:00:00 22.5 2 Oeste 5 Oeste 0 -- -- 79
2020-07-18 04:00:00 22.7 0 Calma 6 Noroeste 0 -- -- 84
2020-07-18 03:00:00 23.1 2 Noroeste 5 Norte 0 -- -- 91
2020-07-18 02:00:00 23.6 0 Calma 8 Este 0 -- -- 91
2020-07-18 01:00:00 23.6 6 Nordeste 8 Nordeste 0 -- -- 90
2020-07-18 00:00:00 23.8 4 Este 6 Nordeste 0 -- -- 89
2020-07-17 23:00:00 23.7 4 Nordeste 5 Nordeste 0 -- -- 89
2020-07-17 22:00:00 23.8 4 Sur 5 Sudeste 0 -- -- 87
2020-07-17 21:00:00 24.2 4 Sudeste 6 Sudeste 0 -- -- 84
2020-07-17 20:00:00 25.3 4 Sudeste 5 Sudeste 0 -- -- 78
2020-07-17 19:00:00 25.5 4 Sudeste 6 Sudeste 0 -- -- 76
2020-07-17 18:00:00 25.9 4 Sudeste 9 Sudeste 0 -- -- 73
2020-07-17 17:00:00 25.9 5 Sudeste 12 Sudeste 0 -- -- 69
2020-07-17 16:00:00 26 6 Este 12 Este 0 -- -- 69
2020-07-17 15:00:00 25.8 4 Sur 10 Sur 0 -- -- 72
2020-07-17 14:00:00 25.2 5 Sur 10 Sudeste 0 -- -- 75
2020-07-17 13:00:00 25 8 Sudeste 18 Sudeste 0 -- -- 78
2020-07-17 12:00:00 24.7 13 Sudeste 21 Sudeste 0 -- -- 77
2020-07-17 11:00:00 24.7 16 Sudeste 25 Sudeste 0 -- -- 73
2020-07-17 10:00:00 24.9 17 Este 25 Este 0 -- -- 70
2020-07-17 09:00:00 25.4 15 Este 22 Este 0 -- -- 61
2020-07-17 08:00:00 23.6 5 Norte 14 Noroeste 0 -- -- 51
2020-07-17 07:00:00 22.6 8 Norte 17 Norte 0 -- -- 50
2020-07-17 06:00:00 22.8 9 Norte 19 Norte 0 -- -- 54
2020-07-17 05:00:00 22.6 9 Noroeste 15 Norte 0 -- -- 55
2020-07-17 04:00:00 22.8 9 Noroeste 18 Norte 0 -- -- 56
2020-07-17 03:00:00 24.4 7 Norte 21 Este 0 -- -- 61
2020-07-17 02:00:00 25 19 Nordeste 26 Nordeste 0 -- -- 66
2020-07-17 01:00:00 25 17 Nordeste 26 Nordeste 0 -- -- 63
2020-07-17 00:00:00 24.7 7 Nordeste 23 Este 0 -- -- 74
2020-07-16 23:00:00 25.1 7 Nordeste 15 Nordeste 0 -- -- 65
2020-07-16 22:00:00 24.9 4 Nordeste 8 Nordeste 0 -- -- 72
2020-07-16 21:00:00 25.2 3 Nordeste 10 Nordeste 0 -- -- 73
2020-07-16 20:00:00 26.9 4 Nordeste 15 Este 0 -- -- 66
2020-07-16 19:00:00 26.7 4 Nordeste 19 Sudeste 0 -- -- 67
2020-07-16 18:00:00 25.1 17 Sudeste 28 Sudeste 0 -- -- 74
2020-07-16 17:00:00 25 22 Sudeste 35 Sudeste 0 -- -- 73
2020-07-16 16:00:00 25.5 30 Sudeste 37 Sudeste 0 -- -- 63
2020-07-16 15:00:00 25.2 26 Sudeste 32 Sudeste 0 -- -- 70
2020-07-16 14:00:00 25.1 23 Sudeste 28 Sudeste 0 -- -- 70
2020-07-16 13:00:00 25.2 21 Sudeste 28 Sudeste 0 -- -- 69
2020-07-16 12:00:00 25.4 18 Sudeste 28 Sudeste 0 -- -- 66
2020-07-16 11:00:00 25.7 22 Este 29 Este 0 -- -- 64
2020-07-16 10:00:00 25.9 14 Este 34 Este 0 -- -- 66
2020-07-16 09:00:00 26.6 14 Este 29 Nordeste 0 -- -- 60
2020-07-16 08:00:00 24.9 12 Nordeste 26 Nordeste 0 -- -- 62
2020-07-16 07:00:00 24.7 15 Este 23 Este 0 -- -- 65
2020-07-16 06:00:00 24.7 18 Nordeste 27 Este 0 -- -- 65
2020-07-16 05:00:00 25.3 20 Nordeste 31 Nordeste 0 -- -- 59
2020-07-16 04:00:00 25.4 21 Nordeste 35 Este 0 -- -- 56
2020-07-16 03:00:00 25.8 23 Nordeste 35 Nordeste 0 -- -- 54
2020-07-16 02:00:00 25.6 20 Este 32 Nordeste 0 -- -- 55
2020-07-16 01:00:00 25.4 18 Nordeste 30 Nordeste 0 -- -- 57
2020-07-16 00:00:00 25.1 19 Este 24 Nordeste 0 -- -- 63
2020-07-15 23:00:00 24.7 11 Nordeste 22 Nordeste 0 -- -- 73
2020-07-15 22:00:00 24.9 17 Este 27 Este 0 -- -- 67
2020-07-15 21:00:00 24.7 16 Este 23 Este 0 -- -- 70
2020-07-15 20:00:00 24.5 18 Sudeste 28 Sudeste 0 -- -- 81
2020-07-15 19:00:00 24.8 24 Sudeste 32 Sudeste 0 -- -- 76
2020-07-15 18:00:00 24.9 25 Sudeste 35 Sudeste 0 -- -- 74
2020-07-15 17:00:00 24.9 29 Sudeste 38 Este 0 -- -- 75
2020-07-15 16:00:00 24.7 26 Sudeste 34 Sudeste 0 -- -- 77
2020-07-15 15:00:00 24.4 22 Sudeste 30 Sudeste 0 -- -- 80
2020-07-15 14:00:00 24.4 21 Sudeste 30 Sudeste 0 -- -- 80
2020-07-15 13:00:00 24.6 22 Sudeste 33 Sudeste 0 -- -- 78
2020-07-15 12:00:00 24.9 17 Este 28 Este 0 -- -- 77
2020-07-15 11:00:00 24.7 18 Este 22 Este 0 -- -- 80
2020-07-15 10:00:00 25.4 17 Este 25 Nordeste 0 -- -- 75
2020-07-15 09:00:00 25.4 12 Nordeste 26 Nordeste 0 -- -- 74
2020-07-15 08:00:00 23.6 17 Nordeste 24 Nordeste 0 -- -- 80
2020-07-15 07:00:00 23.3 14 Este 20 Este 0 -- -- 82
2020-07-15 06:00:00 23.9 14 Este 20 Este 0 -- -- 74
2020-07-15 05:00:00 23.4 8 Nordeste 19 Este 0 -- -- 81
2020-07-15 04:00:00 24 17 Este 33 Este 0 -- -- 76
2020-07-15 03:00:00 24.6 27 Este 40 Nordeste 0 -- -- 71
2020-07-15 02:00:00 24.4 21 Nordeste 27 Nordeste 0 -- -- 69
2020-07-15 01:00:00 24.9 18 Nordeste 24 Nordeste 0 -- -- 69
2020-07-15 00:00:00 24.8 10 Nordeste 16 Nordeste 0 -- -- 72